createdAt,value
2023-04-27T00:02:01.101Z,39.90
2023-04-27T00:04:28.673Z,23.60
2023-04-27T00:06:56.010Z,23.30
2023-04-27T00:09:23.186Z,20.80
2023-04-27T00:11:50.850Z,18.20
2023-04-27T00:14:17.870Z,16.40
2023-04-27T00:16:45.048Z,18.10
2023-04-27T00:19:14.212Z,20.80
2023-04-27T00:21:41.969Z,20.20
2023-04-27T00:24:08.924Z,22.40
2023-04-27T00:26:36.105Z,24.50
2023-04-27T00:29:03.244Z,23.90
2023-04-27T00:31:30.417Z,24.90
2023-04-27T00:33:57.796Z,23.10
2023-04-27T00:36:24.951Z,33.30
2023-04-27T00:38:52.307Z,22.20
2023-04-27T00:41:19.273Z,24.40
2023-04-27T00:43:47.449Z,23.60
2023-04-27T00:46:14.995Z,17.70
2023-04-27T00:48:41.987Z,21.20
2023-04-27T00:51:09.603Z,18.00
2023-04-27T00:53:36.490Z,21.60
2023-04-27T00:56:05.716Z,21.40
2023-04-27T00:58:33.400Z,29.80
2023-04-27T01:01:01.061Z,21.60
2023-04-27T01:03:28.666Z,28.20
2023-04-27T01:05:57.362Z,26.00
2023-04-27T01:08:24.864Z,31.10
2023-04-27T01:10:52.319Z,21.20
2023-04-27T01:13:19.792Z,32.80
2023-04-27T01:15:47.197Z,21.50
2023-04-27T01:18:14.558Z,20.70
2023-04-27T01:20:42.524Z,21.40
2023-04-27T01:23:16.672Z,31.90
2023-04-27T01:25:44.289Z,25.40
2023-04-27T01:28:11.143Z,21.70
2023-04-27T01:30:38.314Z,21.80
2023-04-27T01:33:05.712Z,24.60
2023-04-27T01:35:32.958Z,27.40
2023-04-27T01:38:00.695Z,33.20
2023-04-27T01:40:27.786Z,36.10
2023-04-27T01:42:55.014Z,25.00
2023-04-27T01:45:22.172Z,26.70
2023-04-27T01:47:52.224Z,21.50
2023-04-27T01:50:20.531Z,30.10
2023-04-27T01:52:47.752Z,28.80
2023-04-27T01:55:14.928Z,32.00
2023-04-27T01:57:42.825Z,17.80
2023-04-27T02:00:10.922Z,19.60
2023-04-27T02:02:53.826Z,19.50
2023-04-27T02:05:23.286Z,27.30
2023-04-27T02:07:50.528Z,16.60
2023-04-27T02:10:17.379Z,33.70
2023-04-27T02:12:45.287Z,17.70
2023-04-27T02:15:12.196Z,17.20
2023-04-27T02:17:39.836Z,13.30
2023-04-27T02:20:07.546Z,29.30
2023-04-27T02:22:34.617Z,52.60
2023-04-27T02:25:02.182Z,45.50
2023-04-27T02:27:29.067Z,33.30
2023-04-27T02:29:58.110Z,22.90
2023-04-27T02:32:25.775Z,21.20
2023-04-27T02:34:52.647Z,18.40
2023-04-27T02:37:19.812Z,36.90
2023-04-27T02:39:47.514Z,34.80
2023-04-27T02:42:14.945Z,28.30
2023-04-27T02:44:43.243Z,31.80
2023-04-27T02:47:11.061Z,32.10
2023-04-27T02:49:38.256Z,28.00
2023-04-27T02:52:05.860Z,27.90
2023-04-27T02:54:32.988Z,16.80
2023-04-27T02:57:00.199Z,18.90
2023-04-27T02:59:27.359Z,15.00
2023-04-27T03:01:54.473Z,22.50
2023-04-27T03:04:21.722Z,19.00
2023-04-27T03:06:49.274Z,17.30
2023-04-27T03:09:16.721Z,21.80
2023-04-27T03:11:44.092Z,20.40
2023-04-27T03:14:12.843Z,16.10
2023-04-27T03:16:40.498Z,19.30
2023-04-27T03:19:07.687Z,23.40
2023-04-27T03:21:35.076Z,20.90
2023-04-27T03:24:02.425Z,21.70
2023-04-27T03:26:29.697Z,16.00
2023-04-27T03:28:58.060Z,13.20
2023-04-27T03:31:27.990Z,21.40
2023-04-27T03:33:55.244Z,19.50
2023-04-27T03:36:22.868Z,18.60
2023-04-27T03:38:49.961Z,20.00
2023-04-27T03:41:17.124Z,22.90
2023-04-27T03:43:44.263Z,25.20
2023-04-27T03:46:11.496Z,23.30
2023-04-27T03:48:38.770Z,20.20
2023-04-27T03:51:06.946Z,34.00
2023-04-27T03:53:34.716Z,24.00
2023-04-27T03:56:02.229Z,22.20
2023-04-27T03:58:29.442Z,25.10
2023-04-27T04:01:19.117Z,18.30
2023-04-27T04:03:48.036Z,19.80
2023-04-27T04:06:15.919Z,22.60
2023-04-27T04:08:43.425Z,18.40
2023-04-27T04:11:11.004Z,34.30
2023-04-27T04:13:38.479Z,19.40
2023-04-27T04:16:06.966Z,20.20
2023-04-27T04:18:34.609Z,23.10
2023-04-27T04:21:02.196Z,28.30
2023-04-27T04:23:29.580Z,48.40
2023-04-27T04:25:56.910Z,27.10
2023-04-27T04:28:25.347Z,20.70
2023-04-27T04:30:53.020Z,19.20
2023-04-27T04:33:20.440Z,13.20
2023-04-27T04:35:47.904Z,15.60
2023-04-27T04:38:15.328Z,18.40
2023-04-27T04:40:45.284Z,17.10
2023-04-27T04:43:13.707Z,20.10
2023-04-27T04:45:42.889Z,24.20
2023-04-27T04:48:10.453Z,15.40
2023-04-27T04:50:37.994Z,21.10
2023-04-27T04:53:05.468Z,23.40
2023-04-27T04:55:33.693Z,22.50
2023-04-27T04:58:04.449Z,19.80
2023-04-27T05:00:32.014Z,24.40
2023-04-27T05:03:01.753Z,29.30
2023-04-27T05:05:29.188Z,24.70
2023-04-27T05:07:56.218Z,28.80
2023-04-27T05:10:23.372Z,30.10
2023-04-27T05:12:50.559Z,30.80
2023-04-27T05:15:18.422Z,27.80
2023-04-27T05:17:45.526Z,49.40
2023-04-27T05:20:12.843Z,65.20
2023-04-27T05:22:40.944Z,75.30
2023-04-27T05:25:08.997Z,72.90
2023-04-27T05:27:35.998Z,74.80
2023-04-27T05:30:03.641Z,71.50
2023-04-27T05:32:30.969Z,67.40
2023-04-27T05:34:58.470Z,64.60
2023-04-27T05:37:26.024Z,50.90
2023-04-27T05:39:53.557Z,61.90
2023-04-27T05:42:20.995Z,95.80
2023-04-27T05:44:48.560Z,96.60
2023-04-27T05:47:15.807Z,85.90
2023-04-27T05:49:43.189Z,92.90
2023-04-27T05:52:10.388Z,114.00
2023-04-27T05:54:37.648Z,133.00
2023-04-27T05:57:04.901Z,125.40
2023-04-27T05:59:32.032Z,100.00
2023-04-27T06:01:59.319Z,100.20
2023-04-27T06:04:27.258Z,93.10
2023-04-27T06:06:55.088Z,96.20
2023-04-27T06:09:22.591Z,86.50
2023-04-27T06:11:50.103Z,88.80
2023-04-27T06:14:17.873Z,85.30
2023-04-27T06:16:45.738Z,86.50
2023-04-27T06:19:13.194Z,85.40
2023-04-27T06:21:41.064Z,81.90
2023-04-27T06:24:08.325Z,75.60
2023-04-27T06:26:35.702Z,68.80
2023-04-27T06:29:08.128Z,66.00
2023-04-27T06:34:02.907Z,69.30
2023-04-27T06:36:29.941Z,83.70
2023-04-27T06:38:57.067Z,96.60
2023-04-27T06:41:24.886Z,62.90
2023-04-27T06:43:52.361Z,32.10
2023-04-27T06:46:19.873Z,28.50
2023-04-27T06:48:47.184Z,23.40
2023-04-27T06:51:14.445Z,18.00
2023-04-27T06:53:41.986Z,16.40
2023-04-27T06:56:11.716Z,20.20
2023-04-27T06:58:38.559Z,48.90
2023-04-27T07:01:05.817Z,90.90
2023-04-27T07:03:36.086Z,116.40
2023-04-27T07:06:03.163Z,140.80
2023-04-27T07:08:30.396Z,162.70
2023-04-27T07:10:57.582Z,159.40
2023-04-27T07:13:25.167Z,132.90
2023-04-27T07:15:59.113Z,133.00
2023-04-27T07:18:28.307Z,97.70
2023-04-27T07:20:55.922Z,117.90
2023-04-27T07:23:23.260Z,106.30
2023-04-27T07:25:50.732Z,103.90
2023-04-27T07:28:18.601Z,90.50
2023-04-27T07:30:45.926Z,98.60
2023-04-27T07:33:13.530Z,36.60
2023-04-27T07:35:40.951Z,66.10
2023-04-27T07:38:09.168Z,39.00
2023-04-27T07:40:37.018Z,125.70
2023-04-27T07:43:04.338Z,103.30
2023-04-27T07:45:34.638Z,120.80
2023-04-27T07:48:02.460Z,73.20
2023-04-27T07:50:32.757Z,107.00
2023-04-27T07:52:59.715Z,126.80
2023-04-27T07:55:27.102Z,124.80
2023-04-27T07:57:54.343Z,104.70
2023-04-27T08:00:22.467Z,111.60
2023-04-27T08:02:50.875Z,82.10
2023-04-27T08:05:18.420Z,76.70
2023-04-27T08:07:46.979Z,50.70
2023-04-27T08:10:15.262Z,61.10
2023-04-27T08:12:42.674Z,51.90
2023-04-27T08:15:10.774Z,37.60
2023-04-27T08:17:40.974Z,39.30
2023-04-27T08:20:11.708Z,28.70
2023-04-27T08:22:39.710Z,22.10
2023-04-27T08:25:08.726Z,18.10
2023-04-27T08:27:40.120Z,20.00
2023-04-27T08:30:07.781Z,20.10
2023-04-27T08:32:34.888Z,12.30
2023-04-27T08:35:02.168Z,12.20
2023-04-27T08:37:29.454Z,14.80
2023-04-27T08:39:56.918Z,8.80
2023-04-27T08:42:24.167Z,11.00
2023-04-27T08:44:52.092Z,16.40
2023-04-27T08:47:25.804Z,12.50
2023-04-27T08:50:02.149Z,14.50
2023-04-27T08:52:28.991Z,9.50
2023-04-27T08:54:55.952Z,20.40
2023-04-27T08:57:23.109Z,14.40
2023-04-27T09:00:01.105Z,15.20
2023-04-27T09:02:29.887Z,14.40
2023-04-27T09:04:57.277Z,8.80
2023-04-27T09:07:26.157Z,11.30
2023-04-27T09:10:02.930Z,14.50
2023-04-27T09:12:33.291Z,8.00
2023-04-27T09:15:04.042Z,14.00
2023-04-27T09:17:31.465Z,12.60
2023-04-27T09:20:10.470Z,12.40
2023-04-27T09:22:48.691Z,12.30
2023-04-27T09:25:28.572Z,11.50
2023-04-27T09:27:56.538Z,18.20
2023-04-27T09:30:24.556Z,13.00
2023-04-27T09:32:53.075Z,17.70
2023-04-27T09:35:26.049Z,17.50
2023-04-27T09:37:53.864Z,14.00
2023-04-27T09:40:26.505Z,14.20
2023-04-27T09:42:58.554Z,14.50
2023-04-27T09:47:53.680Z,16.40
2023-04-27T09:50:22.131Z,17.50
2023-04-27T09:52:49.353Z,21.20
2023-04-27T09:55:20.162Z,18.90
2023-04-27T09:57:54.691Z,14.10
2023-04-27T10:00:49.734Z,16.00
2023-04-27T10:03:39.351Z,17.70
2023-04-27T10:06:32.623Z,20.90
2023-04-27T10:08:59.815Z,36.20
2023-04-27T10:11:39.832Z,38.50
2023-04-27T10:14:08.738Z,30.70
2023-04-27T10:16:49.157Z,33.80
2023-04-27T10:19:16.999Z,27.50
2023-04-27T10:21:57.708Z,20.00
2023-04-27T10:24:41.956Z,18.20
2023-04-27T10:27:11.433Z,16.50
2023-04-27T10:29:42.920Z,17.90
2023-04-27T10:32:19.184Z,15.20
2023-04-27T10:34:48.879Z,17.40
2023-04-27T10:37:16.640Z,20.00
2023-04-27T10:39:49.046Z,19.60
2023-04-27T10:42:28.823Z,28.00
2023-04-27T10:44:59.599Z,34.80
2023-04-27T10:47:39.890Z,30.10
2023-04-27T10:50:09.095Z,18.10
2023-04-27T10:52:36.583Z,19.90
2023-04-27T10:55:17.226Z,18.10
2023-04-27T10:57:52.060Z,25.10
2023-04-27T11:00:44.997Z,18.10
2023-04-27T11:03:23.501Z,17.40
2023-04-27T11:06:00.559Z,15.30
2023-04-27T11:08:28.105Z,20.40
2023-04-27T11:10:55.466Z,30.90
2023-04-27T11:13:24.266Z,35.00
2023-04-27T11:15:54.955Z,34.30
2023-04-27T11:18:25.550Z,31.70
2023-04-27T11:20:54.260Z,48.00
2023-04-27T11:23:30.123Z,58.20
2023-04-27T11:25:57.741Z,52.50
2023-04-27T11:28:24.972Z,60.10
2023-04-27T11:30:59.196Z,77.50
2023-04-27T11:33:27.792Z,39.80
2023-04-27T11:35:55.260Z,41.10
2023-04-27T11:38:23.081Z,46.90
2023-04-27T11:41:07.862Z,42.70
2023-04-27T11:43:35.509Z,42.00
2023-04-27T11:46:10.781Z,45.00
2023-04-27T11:48:38.697Z,47.50
2023-04-27T11:51:06.830Z,44.80
2023-04-27T11:53:35.884Z,36.50
2023-04-27T11:56:07.986Z,21.60
2023-04-27T11:58:36.383Z,27.30
2023-04-27T12:01:04.911Z,24.50
2023-04-27T12:03:32.348Z,20.50
2023-04-27T12:06:16.212Z,15.00
2023-04-27T12:08:47.680Z,22.40
2023-04-27T12:11:15.288Z,15.30
2023-04-27T12:13:42.576Z,13.00
2023-04-27T12:16:10.012Z,10.60
2023-04-27T12:18:37.522Z,19.20
2023-04-27T12:21:08.525Z,9.60
2023-04-27T12:23:36.632Z,11.80
2023-04-27T12:26:04.147Z,10.70
2023-04-27T12:28:31.905Z,11.30
2023-04-27T12:30:59.378Z,7.60
2023-04-27T12:33:26.936Z,6.30
2023-04-27T12:35:54.208Z,1.70
2023-04-27T12:38:22.376Z,3.50
2023-04-27T12:40:49.898Z,2.10
2023-04-27T12:43:17.285Z,8.60
2023-04-27T12:45:44.679Z,12.10
2023-04-27T12:48:12.089Z,3.80
2023-04-27T12:50:39.570Z,14.60
2023-04-27T12:53:07.646Z,3.00
2023-04-27T12:55:35.272Z,6.30
2023-04-27T12:58:02.790Z,2.10
2023-04-27T13:00:30.558Z,3.90
2023-04-27T13:02:58.746Z,12.10
2023-04-27T13:05:26.607Z,8.60
2023-04-27T13:07:54.029Z,2.40
2023-04-27T13:10:24.557Z,8.80
2023-04-27T13:12:51.909Z,4.60
2023-04-27T13:15:19.205Z,2.90
2023-04-27T13:17:46.968Z,9.20
2023-04-27T13:20:15.541Z,4.60
2023-04-27T13:22:42.940Z,2.10
2023-04-27T13:25:10.774Z,6.80
2023-04-27T13:27:38.262Z,2.40
2023-04-27T13:30:06.813Z,2.50
2023-04-27T13:32:34.453Z,5.70
2023-04-27T13:35:01.827Z,7.50
2023-04-27T13:37:29.292Z,5.50
2023-04-27T13:39:56.789Z,3.90
2023-04-27T13:42:29.646Z,5.60
2023-04-27T13:44:57.403Z,8.90
2023-04-27T13:47:24.777Z,5.00
2023-04-27T13:49:52.325Z,4.50
2023-04-27T13:52:19.772Z,4.60
2023-04-27T13:54:47.426Z,4.80
2023-04-27T13:57:14.824Z,3.60
2023-04-27T13:59:42.414Z,3.10
2023-04-27T14:02:10.148Z,7.10
2023-04-27T14:04:40.154Z,5.00
2023-04-27T14:07:07.868Z,6.30
2023-04-27T14:09:35.282Z,3.20
2023-04-27T14:12:02.995Z,6.70
2023-04-27T14:14:30.518Z,3.70
2023-04-27T14:16:58.139Z,4.40
2023-04-27T14:19:27.572Z,6.80
2023-04-27T14:21:56.422Z,9.50
2023-04-27T14:24:23.846Z,3.10
2023-04-27T14:26:51.699Z,9.40
2023-04-27T14:29:19.384Z,8.40
2023-04-27T14:31:47.523Z,4.30
2023-04-27T14:34:14.937Z,3.90
2023-04-27T14:36:42.824Z,7.00
2023-04-27T14:39:10.400Z,5.90
2023-04-27T14:41:38.064Z,5.40
2023-04-27T14:44:10.678Z,12.90
2023-04-27T14:46:38.468Z,7.30
2023-04-27T14:49:05.859Z,7.70
2023-04-27T14:51:33.408Z,7.40
2023-04-27T14:54:00.910Z,8.30
2023-04-27T14:56:28.360Z,13.10
2023-04-27T14:58:55.731Z,6.00
2023-04-27T15:01:23.132Z,13.30
2023-04-27T15:03:53.243Z,15.20
2023-04-27T15:06:22.103Z,12.60
2023-04-27T15:08:49.475Z,10.90
2023-04-27T15:11:17.176Z,9.10
2023-04-27T15:13:45.098Z,9.70
2023-04-27T15:16:12.728Z,14.60
2023-04-27T15:18:40.220Z,12.20
2023-04-27T15:21:07.589Z,7.80
2023-04-27T15:23:37.399Z,11.00
2023-04-27T15:26:04.885Z,8.70
2023-04-27T15:28:34.053Z,8.50
2023-04-27T15:31:01.601Z,9.40
2023-04-27T15:33:29.918Z,7.40
2023-04-27T15:35:59.251Z,8.20
2023-04-27T15:38:27.247Z,9.30
2023-04-27T15:40:54.658Z,9.50
2023-04-27T15:43:42.956Z,10.70
2023-04-27T15:46:15.025Z,8.90
2023-04-27T15:48:42.608Z,20.90
2023-04-27T15:51:10.611Z,12.70
2023-04-27T15:53:38.350Z,12.10
2023-04-27T15:56:06.035Z,7.10
2023-04-27T15:58:33.573Z,9.90
2023-04-27T16:01:01.041Z,10.10
2023-04-27T16:03:28.526Z,10.80
2023-04-27T16:05:56.217Z,8.40
2023-04-27T16:08:23.743Z,8.60
2023-04-27T16:10:51.057Z,12.00
2023-04-27T16:13:18.545Z,9.40
2023-04-27T16:15:46.027Z,14.20
2023-04-27T16:18:13.537Z,11.80
2023-04-27T16:20:41.170Z,18.00
2023-04-27T16:23:08.587Z,10.20
2023-04-27T16:25:36.049Z,13.50
2023-04-27T16:28:03.558Z,20.70
2023-04-27T16:30:31.084Z,8.40
2023-04-27T16:32:58.549Z,8.30
2023-04-27T16:35:26.252Z,14.40
2023-04-27T16:37:54.725Z,13.50
2023-04-27T16:40:22.269Z,15.70
2023-04-27T16:42:49.794Z,13.00
2023-04-27T16:45:17.340Z,8.90
2023-04-27T16:47:48.121Z,13.30
2023-04-27T16:50:15.542Z,9.80
2023-04-27T16:52:43.133Z,9.60
2023-04-27T16:55:10.788Z,18.80
2023-04-27T16:57:38.352Z,12.80
2023-04-27T17:00:07.009Z,8.30
2023-04-27T17:02:35.441Z,10.40
2023-04-27T17:05:02.902Z,14.10
2023-04-27T17:07:32.989Z,17.00
2023-04-27T17:10:00.478Z,9.00
2023-04-27T17:12:28.020Z,13.70
2023-04-27T17:14:55.541Z,10.30
2023-04-27T17:17:23.175Z,10.60
2023-04-27T17:19:50.605Z,8.20
2023-04-27T17:22:18.138Z,8.10
2023-04-27T17:24:45.631Z,10.20
2023-04-27T17:27:13.120Z,15.60
2023-04-27T17:29:40.549Z,11.50
2023-04-27T17:32:09.561Z,10.50
2023-04-27T17:34:37.526Z,9.80
2023-04-27T17:37:05.031Z,15.10
2023-04-27T17:39:32.486Z,13.80
2023-04-27T17:41:59.863Z,9.30
2023-04-27T17:44:27.269Z,10.80
2023-04-27T17:46:55.024Z,15.10
2023-04-27T17:49:23.076Z,12.70
2023-04-27T17:51:50.637Z,10.90
2023-04-27T17:54:19.779Z,8.30
2023-04-27T17:56:47.570Z,8.10
2023-04-27T17:59:15.501Z,9.60
2023-04-27T18:01:44.055Z,10.90
2023-04-27T18:04:11.858Z,12.90
2023-04-27T18:06:39.192Z,9.40
2023-04-27T18:09:06.937Z,11.70
2023-04-27T18:11:35.506Z,9.10
2023-04-27T18:14:03.939Z,8.10
2023-04-27T18:16:31.535Z,7.10
2023-04-27T18:18:58.790Z,13.50
2023-04-27T18:21:28.321Z,10.10
2023-04-27T18:23:56.487Z,11.10
2023-04-27T18:26:24.060Z,7.90
2023-04-27T18:28:51.619Z,13.30
2023-04-27T18:31:19.418Z,8.70
2023-04-27T18:33:47.218Z,13.20
2023-04-27T18:36:14.887Z,10.80
2023-04-27T18:38:42.335Z,13.90
2023-04-27T18:41:09.844Z,11.10
2023-04-27T18:43:37.258Z,13.50
2023-04-27T18:46:04.863Z,15.50
2023-04-27T18:48:32.736Z,16.60
2023-04-27T18:50:59.990Z,11.60
2023-04-27T18:53:27.385Z,11.40
2023-04-27T18:55:54.947Z,13.10
2023-04-27T18:58:23.207Z,12.40
2023-04-27T19:00:51.012Z,10.80
2023-04-27T19:03:19.208Z,12.90
2023-04-27T19:05:47.831Z,13.60
2023-04-27T19:08:15.381Z,13.40
2023-04-27T19:10:42.896Z,12.40
2023-04-27T19:13:13.926Z,16.20
2023-04-27T19:15:41.476Z,14.00
2023-04-27T19:18:11.516Z,13.40
2023-04-27T19:20:40.099Z,16.70
2023-04-27T19:23:09.795Z,11.70
2023-04-27T19:25:38.521Z,14.30
2023-04-27T19:28:06.348Z,13.00
2023-04-27T19:30:34.191Z,14.00
2023-04-27T19:33:01.862Z,16.60
2023-04-27T19:35:30.602Z,14.20
2023-04-27T19:37:58.059Z,15.40
2023-04-27T19:40:25.259Z,16.50
2023-04-27T19:42:52.667Z,15.50
2023-04-27T19:45:20.878Z,16.70
2023-04-27T19:47:49.117Z,13.60
2023-04-27T19:50:17.203Z,17.50
2023-04-27T19:52:44.759Z,14.60
2023-04-27T19:55:12.079Z,14.50
2023-04-27T19:57:39.392Z,15.00
2023-04-27T20:00:11.914Z,18.10
2023-04-27T20:02:42.424Z,17.90
2023-04-27T20:05:10.517Z,16.70
2023-04-27T20:07:38.366Z,14.10
2023-04-27T20:10:06.296Z,15.10
2023-04-27T20:12:47.478Z,19.20
2023-04-27T20:15:19.395Z,14.40
2023-04-27T20:17:47.460Z,19.60
2023-04-27T20:20:15.026Z,20.10
2023-04-27T20:22:42.605Z,16.20
2023-04-27T20:25:10.155Z,14.80
2023-04-27T20:27:37.612Z,15.20
2023-04-27T20:30:05.529Z,18.50
2023-04-27T20:32:32.924Z,20.60
2023-04-27T20:35:02.725Z,17.60
2023-04-27T20:37:30.529Z,18.80
2023-04-27T20:39:58.263Z,17.00
2023-04-27T20:42:25.646Z,18.80
2023-04-27T20:44:55.144Z,14.50
2023-04-27T20:47:22.719Z,16.20
2023-04-27T20:49:50.197Z,14.10
2023-04-27T20:52:17.832Z,16.90
2023-04-27T20:54:45.349Z,19.10
2023-04-27T20:57:14.516Z,15.80
2023-04-27T20:59:42.021Z,16.00
2023-04-27T21:02:09.519Z,17.60
2023-04-27T21:04:37.061Z,13.70
2023-04-27T21:07:04.760Z,14.70
2023-04-27T21:09:32.265Z,14.30
2023-04-27T21:11:59.462Z,15.00
2023-04-27T21:14:27.025Z,14.50
2023-04-27T21:16:54.513Z,16.40
2023-04-27T21:19:22.242Z,14.00
2023-04-27T21:21:49.620Z,14.90
2023-04-27T21:24:17.685Z,16.90
2023-04-27T21:26:45.058Z,25.40
2023-04-27T21:29:12.492Z,16.70
2023-04-27T21:31:40.128Z,19.10
2023-04-27T21:34:08.292Z,14.10
2023-04-27T21:36:35.731Z,14.00
2023-04-27T21:39:03.219Z,15.60
2023-04-27T21:41:30.565Z,24.30
2023-04-27T21:43:58.203Z,13.70
2023-04-27T21:46:25.714Z,15.60
2023-04-27T21:48:52.989Z,17.50
2023-04-27T21:51:20.558Z,18.50
2023-04-27T21:53:47.839Z,18.50
2023-04-27T21:56:15.337Z,18.60
2023-04-27T21:58:42.802Z,19.20
2023-04-27T22:01:11.362Z,18.30
2023-04-27T22:03:39.389Z,20.00
2023-04-27T22:06:07.728Z,19.70
2023-04-27T22:08:35.418Z,18.40
2023-04-27T22:11:03.203Z,19.00
2023-04-27T22:13:30.755Z,25.30
2023-04-27T22:15:58.206Z,19.30
2023-04-27T22:18:25.812Z,19.50
2023-04-27T22:20:54.760Z,19.50
2023-04-27T22:23:22.381Z,24.20
2023-04-27T22:25:49.905Z,16.10
2023-04-27T22:28:17.531Z,20.00
2023-04-27T22:30:45.341Z,17.30
2023-04-27T22:33:12.681Z,16.30
2023-04-27T22:35:40.284Z,18.50
2023-04-27T22:38:07.737Z,14.60
2023-04-27T22:40:35.509Z,15.70
2023-04-27T22:43:02.376Z,13.80
2023-04-27T22:45:29.481Z,17.90
2023-04-27T22:47:57.703Z,14.20
2023-04-27T22:50:24.886Z,16.70
2023-04-27T22:52:53.132Z,15.00
2023-04-27T22:55:20.024Z,16.90
2023-04-27T22:57:47.017Z,14.00
2023-04-27T23:00:14.195Z,19.80
2023-04-27T23:02:41.758Z,15.00
2023-04-27T23:05:11.051Z,13.20
2023-04-27T23:07:38.569Z,22.40
2023-04-27T23:10:06.182Z,12.10
2023-04-27T23:12:33.284Z,12.90
2023-04-27T23:15:00.213Z,11.80
2023-04-27T23:17:33.647Z,15.00
2023-04-27T23:20:01.210Z,13.50
2023-04-27T23:22:28.681Z,14.30
2023-04-27T23:24:55.627Z,19.00
2023-04-27T23:27:23.802Z,11.00
2023-04-27T23:29:51.026Z,12.10
2023-04-27T23:32:18.413Z,12.40
2023-04-27T23:34:45.556Z,12.20
2023-04-27T23:37:12.801Z,14.50
2023-04-27T23:39:39.841Z,13.60
2023-04-27T23:42:07.116Z,12.60
2023-04-27T23:44:34.224Z,11.40
2023-04-27T23:47:01.451Z,11.50
2023-04-27T23:49:28.649Z,15.20
2023-04-27T23:51:55.931Z,16.50
2023-04-27T23:54:23.607Z,9.60
2023-04-27T23:56:51.388Z,17.20
2023-04-27T23:59:18.868Z,8.30
